createdAt,value
2023-05-17T00:00:52.229Z,101978.94
2023-05-17T00:03:19.602Z,101980.19
2023-05-17T00:05:47.122Z,101981.56
2023-05-17T00:08:14.865Z,101972.03
2023-05-17T00:10:43.371Z,101974.72
2023-05-17T00:13:10.858Z,101982.53
2023-05-17T00:15:38.321Z,101971.47
2023-05-17T00:18:05.974Z,101970.66
2023-05-17T00:20:33.858Z,101974.47
2023-05-17T00:23:01.165Z,101981.31
2023-05-17T00:25:28.673Z,101981.94
2023-05-17T00:27:56.622Z,101968.66
2023-05-17T00:30:24.162Z,101970.31
2023-05-17T00:32:51.573Z,101967.00
2023-05-17T00:35:19.068Z,101973.59
2023-05-17T00:37:48.112Z,101972.66
2023-05-17T00:40:16.486Z,101965.22
2023-05-17T00:42:43.992Z,101973.34
2023-05-17T00:45:11.513Z,101971.63
2023-05-17T00:47:39.226Z,101976.50
2023-05-17T00:50:07.247Z,101975.22
2023-05-17T00:52:36.083Z,101978.44
2023-05-17T00:55:03.730Z,101976.22
2023-05-17T00:57:32.377Z,101978.63
2023-05-17T01:00:02.229Z,101963.47
2023-05-17T01:02:29.919Z,101977.19
2023-05-17T01:04:57.953Z,101966.63
2023-05-17T01:07:25.719Z,101965.13
2023-05-17T01:09:53.580Z,101967.75
2023-05-17T01:12:52.103Z,101958.44
2023-05-17T01:15:32.145Z,101959.06
2023-05-17T01:18:10.633Z,101960.63
2023-05-17T01:20:41.528Z,101968.25
2023-05-17T01:23:37.120Z,101955.97
2023-05-17T01:26:17.772Z,101962.63
2023-05-17T01:28:53.673Z,101967.78
2023-05-17T01:31:22.841Z,101956.97
2023-05-17T01:33:50.828Z,101955.03
2023-05-17T01:36:18.407Z,101957.63
2023-05-17T01:38:45.688Z,101968.38
2023-05-17T01:41:22.849Z,101960.69
2023-05-17T01:44:10.172Z,101954.53
2023-05-17T01:46:41.994Z,101956.06
2023-05-17T01:49:15.449Z,101955.22
2023-05-17T01:52:10.045Z,101958.78
2023-05-17T01:54:47.392Z,101957.44
2023-05-17T01:57:16.018Z,101965.06
2023-05-17T01:59:47.644Z,101964.44
2023-05-17T02:02:15.023Z,101958.59
2023-05-17T02:04:42.563Z,101961.38
2023-05-17T02:07:10.078Z,101955.44
2023-05-17T02:09:37.674Z,101956.50
2023-05-17T02:12:05.958Z,101955.78
2023-05-17T02:14:34.705Z,101957.78
2023-05-17T02:17:02.294Z,101952.38
2023-05-17T02:19:29.854Z,101959.59
2023-05-17T02:21:58.247Z,101964.03
2023-05-17T02:24:25.693Z,101952.13
2023-05-17T02:26:53.077Z,101962.06
2023-05-17T02:29:21.003Z,101962.53
2023-05-17T02:31:48.425Z,101968.75
2023-05-17T02:34:17.246Z,101975.03
2023-05-17T02:36:44.637Z,101973.06
2023-05-17T02:39:13.442Z,101972.47
2023-05-17T02:41:40.907Z,101981.50
2023-05-17T02:44:08.403Z,101977.50
2023-05-17T02:46:38.330Z,101977.47
2023-05-17T02:49:05.826Z,101978.28
2023-05-17T02:51:33.141Z,101980.69
2023-05-17T02:54:01.295Z,101974.66
2023-05-17T02:56:28.601Z,101983.25
2023-05-17T02:58:57.671Z,101980.84
2023-05-17T03:01:25.046Z,101977.97
2023-05-17T03:03:53.258Z,101984.09
2023-05-17T03:06:21.334Z,101985.53
2023-05-17T03:08:50.519Z,101980.81
2023-05-17T03:11:17.836Z,101992.69
2023-05-17T03:13:46.562Z,101980.78
2023-05-17T03:16:14.336Z,101986.56
2023-05-17T03:18:41.993Z,101977.09
2023-05-17T03:21:09.433Z,101984.63
2023-05-17T03:23:37.069Z,101983.47
2023-05-17T03:26:04.630Z,101982.28
2023-05-17T03:28:37.096Z,101993.91
2023-05-17T03:31:05.054Z,101987.78
2023-05-17T03:33:34.067Z,101989.03
2023-05-17T03:36:02.066Z,101981.25
2023-05-17T03:38:29.934Z,101998.28
2023-05-17T03:40:57.285Z,101991.06
2023-05-17T03:43:24.689Z,101988.69
2023-05-17T03:45:52.202Z,101983.63
2023-05-17T03:48:20.008Z,101989.44
2023-05-17T03:50:47.490Z,101998.13
2023-05-17T03:53:14.851Z,101991.47
2023-05-17T03:55:42.853Z,101989.56
2023-05-17T03:58:10.576Z,102002.78
2023-05-17T04:00:37.862Z,101993.88
2023-05-17T04:03:13.049Z,101999.00
2023-05-17T04:05:41.578Z,102008.44
2023-05-17T04:08:09.619Z,102008.69
2023-05-17T04:10:36.972Z,102013.97
2023-05-17T04:13:05.135Z,102023.91
2023-05-17T04:15:32.552Z,102026.97
2023-05-17T04:18:00.460Z,102021.94
2023-05-17T04:20:28.074Z,102028.50
2023-05-17T04:22:55.416Z,102034.22
2023-05-17T04:25:24.917Z,102032.31
2023-05-17T04:27:52.456Z,102036.66
2023-05-17T04:30:21.643Z,102044.19
2023-05-17T04:32:51.959Z,102045.13
2023-05-17T04:35:20.069Z,102058.91
2023-05-17T04:37:51.634Z,102056.47
2023-05-17T04:40:21.845Z,102058.97
2023-05-17T04:42:49.952Z,102059.78
2023-05-17T04:45:18.366Z,102061.72
2023-05-17T04:47:45.835Z,102057.91
2023-05-17T04:50:15.442Z,102060.91
2023-05-17T04:52:43.226Z,102066.41
2023-05-17T04:55:11.814Z,102073.31
2023-05-17T04:57:39.286Z,102068.06
2023-05-17T05:00:10.206Z,102065.56
2023-05-17T05:02:40.209Z,102075.38
2023-05-17T05:05:09.711Z,102075.66
2023-05-17T05:07:39.980Z,102075.38
2023-05-17T05:10:09.011Z,102079.53
2023-05-17T05:12:37.872Z,102087.97
2023-05-17T05:15:06.555Z,102082.19
2023-05-17T05:17:35.124Z,102088.63
2023-05-17T05:20:02.930Z,102087.53
2023-05-17T05:22:30.394Z,102092.69
2023-05-17T05:24:58.912Z,102093.88
2023-05-17T05:27:26.342Z,102097.78
2023-05-17T05:29:55.130Z,102093.59
2023-05-17T05:32:23.822Z,102101.75
2023-05-17T05:34:51.233Z,102094.66
2023-05-17T05:37:19.672Z,102096.56
2023-05-17T05:39:47.101Z,102101.47
2023-05-17T05:42:14.496Z,102105.44
2023-05-17T05:44:41.753Z,102105.94
2023-05-17T05:47:09.775Z,102113.22
2023-05-17T05:49:37.287Z,102122.09
2023-05-17T05:52:05.001Z,102127.41
2023-05-17T05:54:32.732Z,102110.72
2023-05-17T05:57:00.868Z,102116.50
2023-05-17T05:59:28.368Z,102126.47
2023-05-17T06:01:57.622Z,102140.03
2023-05-17T06:04:33.047Z,102131.28
2023-05-17T06:07:12.082Z,102140.94
2023-05-17T06:09:39.536Z,102144.00
2023-05-17T06:12:08.978Z,102142.34
2023-05-17T06:14:37.585Z,102147.84
2023-05-17T06:17:05.078Z,102147.31
2023-05-17T06:19:32.650Z,102158.28
2023-05-17T06:22:00.211Z,102158.03
2023-05-17T06:24:27.632Z,102159.34
2023-05-17T06:26:55.018Z,102170.97
2023-05-17T06:29:22.355Z,102165.22
2023-05-17T06:31:49.791Z,102165.78
2023-05-17T06:34:17.109Z,102164.28
2023-05-17T06:36:44.419Z,102168.13
2023-05-17T06:39:11.882Z,102167.34
2023-05-17T06:41:39.263Z,102166.47
2023-05-17T06:44:09.324Z,102177.97
2023-05-17T06:46:36.606Z,102162.97
2023-05-17T06:49:04.420Z,102167.94
2023-05-17T06:51:31.788Z,102165.53
2023-05-17T06:53:59.192Z,102173.56
2023-05-17T06:56:26.880Z,102178.22
2023-05-17T06:58:54.604Z,102164.63
2023-05-17T07:01:22.224Z,102171.91
2023-05-17T07:03:49.716Z,102179.75
2023-05-17T07:06:17.272Z,102180.06
2023-05-17T07:08:44.652Z,102180.03
2023-05-17T07:11:11.923Z,102180.53
2023-05-17T07:13:39.262Z,102189.00
2023-05-17T07:16:08.544Z,102187.13
2023-05-17T07:18:35.927Z,102194.84
2023-05-17T07:21:03.260Z,102197.53
2023-05-17T07:23:30.571Z,102198.28
2023-05-17T07:25:57.934Z,102190.72
2023-05-17T07:28:25.498Z,102188.06
2023-05-17T07:30:52.762Z,102195.56
2023-05-17T07:33:20.241Z,102195.00
2023-05-17T07:35:47.526Z,102198.34
2023-05-17T07:38:14.938Z,102195.81
2023-05-17T07:40:42.231Z,102197.44
2023-05-17T07:43:09.750Z,102199.94
2023-05-17T07:45:37.057Z,102202.03
2023-05-17T07:48:04.707Z,102201.75
2023-05-17T07:50:32.447Z,102198.31
2023-05-17T07:52:59.800Z,102194.34
2023-05-17T07:55:27.268Z,102199.41
2023-05-17T07:57:55.047Z,102192.13
2023-05-17T08:00:22.942Z,102191.94
2023-05-17T08:02:50.579Z,102193.88
2023-05-17T08:05:17.866Z,102198.19
2023-05-17T08:07:45.278Z,102204.25
2023-05-17T08:10:12.617Z,102203.47
2023-05-17T08:12:40.253Z,102202.66
2023-05-17T08:15:07.696Z,102198.91
2023-05-17T08:17:35.094Z,102201.31
2023-05-17T08:20:02.410Z,102202.34
2023-05-17T08:22:29.750Z,102205.84
2023-05-17T08:24:57.083Z,102201.75
2023-05-17T08:27:27.128Z,102204.69
2023-05-17T08:29:55.570Z,102199.44
2023-05-17T08:32:23.797Z,102205.53
2023-05-17T08:34:51.149Z,102211.69
2023-05-17T08:37:18.916Z,102208.09
2023-05-17T08:39:46.535Z,102196.09
2023-05-17T08:42:15.185Z,102210.50
2023-05-17T08:44:43.425Z,102204.91
2023-05-17T08:47:12.301Z,102197.56
2023-05-17T08:49:43.112Z,102197.41
2023-05-17T08:52:11.158Z,102196.94
2023-05-17T08:54:38.803Z,102185.31
2023-05-17T08:57:07.302Z,102181.91
2023-05-17T08:59:35.178Z,102192.78
2023-05-17T09:02:05.773Z,102175.72
2023-05-17T09:04:33.396Z,102180.72
2023-05-17T09:07:00.829Z,102177.25
2023-05-17T09:09:28.496Z,102186.72
2023-05-17T09:11:55.785Z,102177.81
2023-05-17T09:14:23.314Z,102173.13
2023-05-17T09:16:58.109Z,102176.16
2023-05-17T09:19:25.658Z,102172.44
2023-05-17T09:21:54.381Z,102171.31
2023-05-17T09:24:30.262Z,102171.75
2023-05-17T09:27:03.296Z,102174.53
2023-05-17T09:29:32.509Z,102180.88
2023-05-17T09:32:16.464Z,102181.63
2023-05-17T09:34:45.857Z,102189.41
2023-05-17T09:37:15.341Z,102178.16
2023-05-17T09:39:44.914Z,102175.41
2023-05-17T09:42:13.163Z,102170.81
2023-05-17T09:44:55.548Z,102170.53
2023-05-17T09:47:26.049Z,102183.72
2023-05-17T09:49:53.555Z,102176.00
2023-05-17T09:52:21.435Z,102167.94
2023-05-17T09:54:55.740Z,102165.94
2023-05-17T09:57:23.570Z,102167.09
2023-05-17T09:59:51.716Z,102173.38
2023-05-17T10:02:23.176Z,102164.53
2023-05-17T10:04:51.752Z,102169.63
2023-05-17T10:07:20.410Z,102177.34
2023-05-17T10:09:49.973Z,102171.28
2023-05-17T10:12:18.765Z,102175.25
2023-05-17T10:14:46.169Z,102170.91
2023-05-17T10:17:14.832Z,102158.34
2023-05-17T10:19:42.574Z,102170.81
2023-05-17T10:22:22.364Z,102155.25
2023-05-17T10:24:54.139Z,102159.38
2023-05-17T10:27:22.176Z,102154.47
2023-05-17T10:29:50.746Z,102149.25
2023-05-17T10:32:19.801Z,102152.56
2023-05-17T10:34:58.030Z,102145.66
2023-05-17T10:37:37.181Z,102146.31
2023-05-17T10:40:05.022Z,102143.41
2023-05-17T10:42:32.432Z,102141.59
2023-05-17T10:45:01.303Z,102144.47
2023-05-17T10:47:32.944Z,102135.44
2023-05-17T10:50:00.571Z,102135.94
2023-05-17T10:52:27.908Z,102145.19
2023-05-17T10:54:57.021Z,102126.16
2023-05-17T10:57:49.266Z,102119.53
2023-05-17T11:00:21.618Z,102116.91
2023-05-17T11:02:50.676Z,102120.81
2023-05-17T11:05:25.274Z,102114.84
2023-05-17T11:07:52.788Z,102137.69
2023-05-17T11:10:20.301Z,102133.88
2023-05-17T11:12:54.005Z,102119.06
2023-05-17T11:15:24.909Z,102125.00
2023-05-17T11:17:57.004Z,102110.41
2023-05-17T11:20:28.248Z,102113.44
2023-05-17T11:22:58.863Z,102110.88
2023-05-17T11:25:31.767Z,102107.44
2023-05-17T11:27:59.804Z,102109.47
2023-05-17T11:30:31.268Z,102107.97
2023-05-17T11:33:00.620Z,102101.88
2023-05-17T11:35:31.517Z,102098.97
2023-05-17T11:38:19.554Z,102098.47
2023-05-17T11:40:48.576Z,102091.69
2023-05-17T11:43:18.472Z,102089.97
2023-05-17T11:45:57.743Z,102085.72
2023-05-17T11:48:26.781Z,102081.38
2023-05-17T11:50:55.401Z,102075.47
2023-05-17T11:53:24.841Z,102072.63
2023-05-17T11:55:52.725Z,102083.78
2023-05-17T11:58:24.157Z,102072.78
2023-05-17T12:00:58.061Z,102070.09
2023-05-17T12:03:28.829Z,102078.63
2023-05-17T12:06:17.003Z,102061.94
2023-05-17T12:08:45.956Z,102069.91
2023-05-17T12:11:16.882Z,102060.47
2023-05-17T12:13:46.854Z,102065.94
2023-05-17T12:16:17.799Z,102060.06
2023-05-17T12:18:49.677Z,102042.28
2023-05-17T12:21:18.311Z,102063.25
2023-05-17T12:23:48.860Z,102054.16
2023-05-17T12:26:23.383Z,102048.56
2023-05-17T12:28:54.441Z,102057.19
2023-05-17T12:31:34.905Z,102060.31
2023-05-17T12:34:09.181Z,102047.50
2023-05-17T12:36:39.648Z,102058.63
2023-05-17T12:39:09.851Z,102048.41
2023-05-17T12:41:38.576Z,102043.50
2023-05-17T12:44:15.157Z,102032.78
2023-05-17T12:46:44.367Z,102036.41
2023-05-17T12:49:12.333Z,102026.75
2023-05-17T12:51:44.708Z,102042.75
2023-05-17T12:54:14.182Z,102037.41
2023-05-17T12:56:43.655Z,102034.31
2023-05-17T12:59:18.454Z,102036.59
2023-05-17T13:01:47.372Z,102041.75
2023-05-17T13:04:15.744Z,102043.22
2023-05-17T13:06:48.999Z,102048.91
2023-05-17T13:09:18.596Z,102047.91
2023-05-17T13:11:57.223Z,102041.22
2023-05-17T13:14:41.985Z,102041.81
2023-05-17T13:17:13.444Z,102039.31
2023-05-17T13:19:41.013Z,102034.84
2023-05-17T13:22:08.895Z,102037.94
2023-05-17T13:24:37.821Z,102018.38
2023-05-17T13:27:06.062Z,102033.66
2023-05-17T13:29:40.247Z,102028.97
2023-05-17T13:32:09.119Z,102031.06
2023-05-17T13:34:36.439Z,102038.00
2023-05-17T13:37:04.797Z,102019.50
2023-05-17T13:39:32.157Z,102022.78
2023-05-17T13:42:00.195Z,102025.63
2023-05-17T13:44:28.015Z,102021.22
2023-05-17T13:46:55.637Z,102010.28
2023-05-17T13:49:22.959Z,102012.44
2023-05-17T13:51:50.712Z,102011.75
2023-05-17T13:54:20.175Z,102003.88
2023-05-17T13:56:47.532Z,102014.38
2023-05-17T13:59:15.979Z,102011.91
2023-05-17T14:01:43.889Z,102005.59
2023-05-17T14:04:11.751Z,101996.09
2023-05-17T14:06:39.191Z,102010.06
2023-05-17T14:09:06.664Z,102016.41
2023-05-17T14:11:34.398Z,102009.41
2023-05-17T14:14:01.742Z,101992.06
2023-05-17T14:16:28.927Z,101994.56
2023-05-17T14:18:56.359Z,102001.22
2023-05-17T14:21:23.723Z,102005.13
2023-05-17T14:23:51.024Z,101992.88
2023-05-17T14:26:18.369Z,102015.66
2023-05-17T14:28:45.627Z,102003.66
2023-05-17T14:31:12.953Z,102003.97
2023-05-17T14:33:40.315Z,101999.28
2023-05-17T14:36:07.672Z,101987.66
2023-05-17T14:38:35.046Z,101993.13
2023-05-17T14:41:02.420Z,101985.66
2023-05-17T14:43:29.837Z,101983.09
2023-05-17T14:45:57.088Z,101975.25
2023-05-17T14:48:24.552Z,101978.34
2023-05-17T14:50:53.377Z,101988.16
2023-05-17T14:53:21.130Z,101973.91
2023-05-17T14:55:48.659Z,101983.09
2023-05-17T14:58:15.978Z,101982.25
2023-05-17T15:00:48.382Z,101956.38
2023-05-17T15:03:21.934Z,101962.09
2023-05-17T15:05:56.755Z,101963.09
2023-05-17T15:08:24.030Z,101960.31
2023-05-17T15:10:51.487Z,101955.06
2023-05-17T15:13:18.864Z,101961.94
2023-05-17T15:15:46.896Z,101956.03
2023-05-17T15:18:14.815Z,101969.28
2023-05-17T15:20:42.221Z,101967.00
2023-05-17T15:23:09.589Z,101959.41
2023-05-17T15:25:37.021Z,101953.81
2023-05-17T15:28:04.595Z,101955.81
2023-05-17T15:30:32.423Z,101961.25
2023-05-17T15:33:01.362Z,101947.84
2023-05-17T15:35:29.232Z,101956.22
2023-05-17T15:37:58.707Z,101956.03
2023-05-17T15:40:26.098Z,101950.47
2023-05-17T15:42:53.430Z,101949.66
2023-05-17T15:45:22.115Z,101941.16
2023-05-17T15:47:49.719Z,101934.88
2023-05-17T15:50:17.190Z,101946.38
2023-05-17T15:52:44.553Z,101952.97
2023-05-17T15:55:12.886Z,101952.78
2023-05-17T15:57:42.696Z,101959.81
2023-05-17T16:00:10.566Z,101935.09
2023-05-17T16:02:37.918Z,101938.97
2023-05-17T16:05:05.975Z,101955.47
2023-05-17T16:07:33.337Z,101939.47
2023-05-17T16:10:00.612Z,101937.63
2023-05-17T16:12:28.103Z,101947.00
2023-05-17T16:14:55.521Z,101938.03
2023-05-17T16:17:22.863Z,101947.22
2023-05-17T16:19:50.176Z,101932.31
2023-05-17T16:22:17.641Z,101933.25
2023-05-17T16:24:45.040Z,101947.03
2023-05-17T16:27:12.332Z,101933.78
2023-05-17T16:29:40.395Z,101936.09
2023-05-17T16:32:08.553Z,101942.78
2023-05-17T16:34:36.487Z,101933.44
2023-05-17T16:37:05.244Z,101931.94
2023-05-17T16:39:33.191Z,101935.75
2023-05-17T16:42:00.776Z,101935.91
2023-05-17T16:44:28.138Z,101936.56
2023-05-17T16:46:55.516Z,101934.59
2023-05-17T16:49:22.859Z,101931.81
2023-05-17T16:51:51.917Z,101929.19
2023-05-17T16:54:19.666Z,101931.97
2023-05-17T16:56:46.943Z,101937.56
2023-05-17T16:59:15.837Z,101942.44
2023-05-17T17:01:43.193Z,101934.09
2023-05-17T17:04:10.588Z,101936.88
2023-05-17T17:06:38.191Z,101943.09
2023-05-17T17:09:08.347Z,101940.16
2023-05-17T17:11:35.813Z,101941.78
2023-05-17T17:14:03.071Z,101949.97
2023-05-17T17:16:31.703Z,101953.06
2023-05-17T17:18:59.569Z,101944.88
2023-05-17T17:21:26.999Z,101945.06
2023-05-17T17:23:54.377Z,101936.72
2023-05-17T17:26:22.081Z,101938.84
2023-05-17T17:28:49.445Z,101947.84
2023-05-17T17:31:18.269Z,101933.91
2023-05-17T17:33:46.032Z,101947.00
2023-05-17T17:36:13.523Z,101941.94
2023-05-17T17:38:40.833Z,101944.88
2023-05-17T17:41:08.137Z,101936.03
2023-05-17T17:43:35.793Z,101936.22
2023-05-17T17:46:03.448Z,101938.00
2023-05-17T17:48:30.740Z,101933.75
2023-05-17T17:50:59.138Z,101934.38
2023-05-17T17:53:26.608Z,101941.94
2023-05-17T17:55:53.909Z,101941.38
2023-05-17T17:58:21.262Z,101945.91
2023-05-17T18:00:48.690Z,101951.66
2023-05-17T18:03:16.349Z,101942.81
2023-05-17T18:05:43.769Z,101942.47
2023-05-17T18:08:11.577Z,101924.25
2023-05-17T18:10:38.911Z,101948.16
2023-05-17T18:13:06.120Z,101943.06
2023-05-17T18:15:33.406Z,101936.69
2023-05-17T18:18:00.789Z,101932.41
2023-05-17T18:20:28.243Z,101936.69
2023-05-17T18:22:55.759Z,101932.63
2023-05-17T18:25:23.011Z,101933.78
2023-05-17T18:27:50.534Z,101939.28
2023-05-17T18:30:18.587Z,101927.09
2023-05-17T18:32:46.192Z,101932.06
2023-05-17T18:35:13.698Z,101944.63
2023-05-17T18:37:40.925Z,101934.06
2023-05-17T18:40:08.664Z,101945.03
2023-05-17T18:42:35.999Z,101931.41
2023-05-17T18:45:04.341Z,101933.94
2023-05-17T18:47:31.794Z,101933.09
2023-05-17T18:49:59.619Z,101933.75
2023-05-17T18:52:26.925Z,101930.47
2023-05-17T18:54:54.204Z,101930.81
2023-05-17T18:57:21.557Z,101937.81
2023-05-17T18:59:49.069Z,101934.13
2023-05-17T19:02:16.440Z,101939.53
2023-05-17T19:04:44.129Z,101938.06
2023-05-17T19:07:11.555Z,101946.41
2023-05-17T19:09:38.907Z,101946.63
2023-05-17T19:12:06.754Z,101948.44
2023-05-17T19:14:34.069Z,101950.81
2023-05-17T19:17:02.673Z,101950.13
2023-05-17T19:19:31.334Z,101952.09
2023-05-17T19:22:00.708Z,101967.06
2023-05-17T19:24:29.069Z,101960.47
2023-05-17T19:26:56.400Z,101968.81
2023-05-17T19:29:23.838Z,101967.03
2023-05-17T19:31:51.383Z,101968.91
2023-05-17T19:34:18.722Z,101968.84
2023-05-17T19:36:46.107Z,101977.69
2023-05-17T19:39:13.446Z,101974.44
2023-05-17T19:41:41.201Z,101976.13
2023-05-17T19:44:08.589Z,101979.28
2023-05-17T19:46:36.082Z,101982.69
2023-05-17T19:49:03.622Z,101992.09
2023-05-17T19:51:31.680Z,101988.56
2023-05-17T19:53:58.933Z,101988.91
2023-05-17T19:56:26.320Z,101994.25
2023-05-17T19:58:54.199Z,101999.25
2023-05-17T20:01:21.897Z,102000.13
2023-05-17T20:03:49.463Z,101990.47
2023-05-17T20:06:16.842Z,101992.63
2023-05-17T20:08:45.107Z,101999.84
2023-05-17T20:11:12.731Z,102002.34
2023-05-17T20:13:40.447Z,102003.03
2023-05-17T20:16:14.860Z,102008.38
2023-05-17T20:18:43.808Z,102001.81
2023-05-17T20:21:15.077Z,102003.53
2023-05-17T20:23:42.784Z,102003.22
2023-05-17T20:26:16.584Z,102002.88
2023-05-17T20:28:44.648Z,102006.38
2023-05-17T20:31:12.165Z,102014.06
2023-05-17T20:33:39.579Z,102009.78
2023-05-17T20:36:07.114Z,102014.69
2023-05-17T20:38:34.342Z,102013.56
2023-05-17T20:41:01.774Z,102009.56
2023-05-17T20:43:29.632Z,102017.28
2023-05-17T20:45:56.988Z,102012.94
2023-05-17T20:48:24.317Z,102010.88
2023-05-17T20:50:51.636Z,102022.31
2023-05-17T20:53:19.422Z,102024.06
2023-05-17T20:55:46.704Z,102032.41
2023-05-17T20:58:13.928Z,102033.28
2023-05-17T21:00:41.463Z,102012.31
2023-05-17T21:03:11.694Z,102033.09
2023-05-17T21:05:38.801Z,102035.16
2023-05-17T21:08:07.432Z,102028.59
2023-05-17T21:10:38.132Z,102031.66
2023-05-17T21:13:06.136Z,102024.91
2023-05-17T21:15:33.534Z,102033.94
2023-05-17T21:18:01.097Z,102029.00
2023-05-17T21:20:28.475Z,102031.56
2023-05-17T21:22:55.881Z,102032.75
2023-05-17T21:25:23.285Z,102031.84
2023-05-17T21:27:51.380Z,102035.59
2023-05-17T21:30:18.985Z,102027.06
2023-05-17T21:32:46.327Z,102036.72
2023-05-17T21:35:13.753Z,102033.34
2023-05-17T21:37:42.134Z,102031.88
2023-05-17T21:40:10.168Z,102029.41
2023-05-17T21:42:37.524Z,102029.81
2023-05-17T21:45:05.404Z,102029.84
2023-05-17T21:47:32.764Z,102028.06
2023-05-17T21:50:00.117Z,102028.06
2023-05-17T21:52:27.586Z,102020.47
2023-05-17T21:54:54.957Z,102020.59
2023-05-17T21:57:23.306Z,102033.22
2023-05-17T21:59:51.189Z,102032.25
2023-05-17T22:02:18.686Z,102036.34
2023-05-17T22:04:46.033Z,102031.00
2023-05-17T22:07:14.064Z,102022.88
2023-05-17T22:09:41.489Z,102022.81
2023-05-17T22:12:09.358Z,102018.53
2023-05-17T22:14:36.800Z,102022.06
2023-05-17T22:17:08.523Z,102029.88
2023-05-17T22:19:41.325Z,102025.13
2023-05-17T22:22:08.714Z,102024.16
2023-05-17T22:24:36.232Z,102031.19
2023-05-17T22:27:03.865Z,102025.69
2023-05-17T22:29:31.265Z,102028.50
2023-05-17T22:31:58.813Z,102031.25
2023-05-17T22:34:26.397Z,102026.13
2023-05-17T22:36:55.103Z,102032.66
2023-05-17T22:39:22.429Z,102027.88
2023-05-17T22:41:49.796Z,102024.66
2023-05-17T22:44:17.064Z,102021.97
2023-05-17T22:46:46.771Z,102018.28
2023-05-17T22:49:14.192Z,102016.66
2023-05-17T22:51:42.578Z,102025.75
2023-05-17T22:54:09.949Z,102022.88
2023-05-17T22:56:37.248Z,102017.72
2023-05-17T22:59:04.844Z,102006.25
2023-05-17T23:01:32.163Z,102030.56
2023-05-17T23:03:59.572Z,102008.25
2023-05-17T23:06:26.939Z,102016.94
2023-05-17T23:08:55.017Z,102016.59
2023-05-17T23:11:22.356Z,102013.69
2023-05-17T23:13:49.683Z,102025.78
2023-05-17T23:16:17.949Z,102021.00
2023-05-17T23:18:46.425Z,102011.00
2023-05-17T23:21:13.875Z,102021.78
2023-05-17T23:23:41.146Z,102020.16
2023-05-17T23:26:08.473Z,102015.47
2023-05-17T23:28:37.741Z,102011.16
2023-05-17T23:31:05.819Z,102006.34
2023-05-17T23:33:33.280Z,102008.81
2023-05-17T23:36:00.583Z,102003.56
2023-05-17T23:38:27.954Z,102008.25
2023-05-17T23:40:56.387Z,102001.63
2023-05-17T23:43:23.628Z,102000.59
2023-05-17T23:45:51.325Z,102011.56
2023-05-17T23:48:20.734Z,102004.84
2023-05-17T23:50:48.131Z,102007.63
2023-05-17T23:53:18.447Z,102000.16
2023-05-17T23:55:46.190Z,102004.31
2023-05-17T23:58:13.438Z,102002.09
